Time;durP1;ratioP1;P1;durP2;ratioP2;P2;SDS_P1;SDS_P2;PMS_P1;PMS_P2;Temp;Humidity;BMP_temperature;BMP_pressure;BME280_temperature;BME280_humidity;BME280_pressure;Samples;Min_cycle;Max_cycle;Signal;HPM_P1;HPM_P2
2022/08/06 00:00:50;;;;;;;1999.90;999.90;;;13.30;99.90;;;;;;4936662;29;20715;-58
2022/08/06 00:03:17;;;;;;;1999.90;999.90;;;13.30;99.90;;;;;;4937069;29;20255;-59
2022/08/06 00:05:44;;;;;;;1999.90;999.90;;;13.30;99.90;;;;;;4936705;29;20203;-59
2022/08/06 00:08:11;;;;;;;1999.90;999.90;;;13.30;99.90;;;;;;4936349;29;20260;-58
2022/08/06 00:10:38;;;;;;;1999.90;999.90;;;13.20;99.90;;;;;;4936593;29;20211;-58
2022/08/06 00:13:06;;;;;;;1999.90;999.90;;;13.20;99.90;;;;;;4936520;29;20213;-58
2022/08/06 00:15:35;;;;;;;1999.90;999.90;;;13.20;99.90;;;;;;4936154;29;20199;-58
2022/08/06 00:18:02;;;;;;;1999.90;999.90;;;13.20;99.90;;;;;;4936246;29;20213;-58
2022/08/06 00:20:29;;;;;;;1999.90;999.90;;;13.20;99.90;;;;;;4936346;29;20223;-58
2022/08/06 00:22:56;;;;;;;1999.90;999.90;;;13.20;99.90;;;;;;4936253;29;20225;-59
2022/08/06 00:25:23;;;;;;;1999.90;999.90;;;13.10;99.90;;;;;;4935238;29;20213;-59
2022/08/06 00:27:50;;;;;;;1999.90;999.90;;;13.10;99.90;;;;;;4936285;29;20199;-58
2022/08/06 00:30:17;;;;;;;1999.90;999.90;;;13.00;99.90;;;;;;4935977;29;20242;-60
2022/08/06 00:32:46;;;;;;;1999.90;999.90;;;13.00;99.90;;;;;;4935905;29;20719;-60
2022/08/06 00:35:13;;;;;;;1999.90;999.90;;;13.00;99.90;;;;;;4936143;29;20197;-59
2022/08/06 00:37:40;;;;;;;1999.90;999.90;;;13.00;99.90;;;;;;4935882;29;20198;-59
2022/08/06 00:40:08;;;;;;;1999.90;999.90;;;12.90;99.90;;;;;;4936007;29;20241;-59
2022/08/06 00:42:35;;;;;;;1999.90;999.90;;;12.90;99.90;;;;;;4935711;29;20264;-59
2022/08/06 00:45:04;;;;;;;1999.90;999.90;;;12.80;99.90;;;;;;4935665;29;20208;-59
2022/08/06 00:47:31;;;;;;;1999.90;999.90;;;12.80;99.90;;;;;;4936141;29;20211;-59
2022/08/06 00:49:59;;;;;;;1999.90;999.90;;;12.60;99.90;;;;;;4935974;29;20199;-59
2022/08/06 00:52:26;;;;;;;1999.90;999.90;;;12.40;99.90;;;;;;4935634;29;20217;-59
2022/08/06 00:54:53;;;;;;;1999.90;999.90;;;12.20;99.90;;;;;;4935517;29;20209;-59
2022/08/06 00:57:20;;;;;;;1999.90;999.90;;;12.20;99.90;;;;;;4935534;29;20210;-59
2022/08/06 00:59:47;;;;;;;1999.90;999.90;;;12.20;99.90;;;;;;4935740;29;20213;-59
2022/08/06 01:02:14;;;;;;;1999.90;999.90;;;12.20;99.90;;;;;;4935768;29;20255;-59
2022/08/06 01:04:41;;;;;;;1999.90;999.90;;;12.30;99.90;;;;;;4935461;29;20208;-59
2022/08/06 01:07:10;;;;;;;1999.90;999.90;;;12.30;99.90;;;;;;4935544;29;20210;-59
2022/08/06 01:09:37;;;;;;;1999.90;999.90;;;12.20;99.90;;;;;;4935527;29;20209;-59
2022/08/06 01:12:05;;;;;;;1999.90;999.90;;;12.30;99.90;;;;;;4935524;29;20207;-59
2022/08/06 01:14:32;;;;;;;1999.90;999.90;;;12.40;99.90;;;;;;4935546;29;20212;-59
2022/08/06 01:17:05;;;;;;;1999.90;999.90;;;12.40;99.90;;;;;;4935495;29;20270;-59
2022/08/06 01:19:57;;;;;;;1999.90;999.90;;;12.40;99.90;;;;;;4935508;29;20192;-59
2022/08/06 01:22:54;;;;;;;1999.90;999.90;;;12.30;99.90;;;;;;4935377;29;20181;-59
2022/08/06 01:25:43;;;;;;;1999.90;999.90;;;12.30;99.90;;;;;;4935272;29;20184;-59
2022/08/06 01:28:15;;;;;;;1999.90;999.90;;;12.20;99.90;;;;;;4935367;29;20192;-59
2022/08/06 01:30:48;;;;;;;1999.90;999.90;;;12.20;99.90;;;;;;4935075;29;20236;-59
2022/08/06 01:33:21;;;;;;;1999.90;999.90;;;12.20;99.90;;;;;;4935082;29;20215;-59
2022/08/06 01:35:53;;;;;;;1999.90;999.90;;;12.20;99.90;;;;;;4935185;29;20187;-59
2022/08/06 01:38:24;;;;;;;1999.90;999.90;;;12.20;99.90;;;;;;4935053;29;20190;-59
2022/08/06 01:40:53;;;;;;;1999.90;999.90;;;12.20;99.90;;;;;;4935279;29;20264;-59
2022/08/06 01:43:22;;;;;;;1999.90;999.90;;;12.20;99.90;;;;;;4935287;29;20206;-59
2022/08/06 01:45:53;;;;;;;1999.90;999.90;;;12.20;99.90;;;;;;4935237;29;20212;-59
2022/08/06 01:48:24;;;;;;;1999.90;999.90;;;12.20;99.90;;;;;;4935297;29;20195;-59
2022/08/06 01:50:55;;;;;;;1999.90;999.90;;;12.10;99.90;;;;;;4935428;29;20181;-59
2022/08/06 01:53:29;;;;;;;1999.90;999.90;;;12.10;99.90;;;;;;4935484;29;20191;-59
2022/08/06 01:55:59;;;;;;;1999.90;999.90;;;12.10;99.90;;;;;;4935246;29;20194;-59
2022/08/06 01:58:32;;;;;;;1999.90;999.90;;;12.10;99.90;;;;;;4934728;29;20191;-59
2022/08/06 02:01:03;;;;;;;1999.90;999.90;;;12.20;99.90;;;;;;4935133;29;20207;-59
2022/08/06 02:03:33;;;;;;;1999.90;999.90;;;12.10;99.90;;;;;;4935117;29;20565;-59
2022/08/06 02:06:01;;;;;;;1999.90;999.90;;;12.00;99.90;;;;;;4935099;29;20196;-59
2022/08/06 02:08:33;;;;;;;1999.90;999.90;;;12.00;99.90;;;;;;4935063;29;20687;-59
2022/08/06 02:11:01;;;;;;;1999.90;999.90;;;12.00;99.90;;;;;;4935048;29;20186;-59
2022/08/06 02:13:33;;;;;;;1999.90;999.90;;;12.00;99.90;;;;;;4934684;29;20214;-59
2022/08/06 02:16:02;;;;;;;1999.90;999.90;;;12.00;99.90;;;;;;4934992;29;20189;-59
2022/08/06 02:18:35;;;;;;;1999.90;999.90;;;11.90;99.90;;;;;;4934957;29;20571;-59
2022/08/06 02:21:06;;;;;;;1999.90;999.90;;;11.90;99.90;;;;;;4934472;29;20207;-59
2022/08/06 02:23:35;;;;;;;1999.90;999.90;;;11.90;99.90;;;;;;4934866;29;20207;-59
2022/08/06 02:26:04;;;;;;;1999.90;999.90;;;11.80;99.90;;;;;;4934678;29;20200;-59
2022/08/06 02:28:35;;;;;;;1999.90;999.90;;;11.80;99.90;;;;;;4934502;29;20676;-59
2022/08/06 02:31:02;;;;;;;1999.90;999.90;;;11.80;99.90;;;;;;4934831;29;20226;-59
2022/08/06 02:33:31;;;;;;;1999.90;999.90;;;11.80;99.90;;;;;;4934568;29;20601;-59
2022/08/06 02:36:03;;;;;;;1999.90;999.90;;;11.80;99.90;;;;;;4934790;29;20207;-59
2022/08/06 02:38:36;;;;;;;1999.90;999.90;;;11.80;99.90;;;;;;4934823;29;20194;-59
2022/08/06 02:41:12;;;;;;;1999.90;999.90;;;11.70;99.90;;;;;;4934796;29;20206;-59
2022/08/06 02:43:43;;;;;;;1999.90;999.90;;;11.70;99.90;;;;;;4934650;29;20192;-59
2022/08/06 02:46:14;;;;;;;1999.90;999.90;;;11.70;99.90;;;;;;4934522;29;20667;-59
2022/08/06 02:48:46;;;;;;;1999.90;999.90;;;11.60;99.90;;;;;;4937248;29;20195;-59
2022/08/06 02:51:22;;;;;;;1999.90;999.90;;;11.40;99.90;;;;;;4937987;29;20189;-59
2022/08/06 02:53:58;;;;;;;1999.90;999.90;;;11.00;99.90;;;;;;4938084;29;20195;-59
2022/08/06 02:56:28;;;;;;;1999.90;999.90;;;10.90;99.90;;;;;;4937736;29;20649;-59
2022/08/06 02:58:58;;;;;;;1999.90;999.90;;;10.90;99.90;;;;;;4937542;29;20274;-59
2022/08/06 03:01:28;;;;;;;1999.90;999.90;;;10.90;99.90;;;;;;4937907;29;20225;-59
2022/08/06 03:03:59;;;;;;;1999.90;999.90;;;11.10;99.90;;;;;;4938094;29;20240;-59
2022/08/06 03:06:28;;;;;;;1999.90;999.90;;;11.10;99.90;;;;;;4937551;29;20186;-59
2022/08/06 03:08:57;;;;;;;1999.90;999.90;;;11.10;99.90;;;;;;4937746;29;20561;-59
2022/08/06 03:11:26;;;;;;;1999.90;999.90;;;11.20;99.90;;;;;;4937636;29;20677;-59
2022/08/06 03:13:57;;;;;;;1999.90;999.90;;;11.20;99.90;;;;;;4937852;29;20208;-59
2022/08/06 03:16:26;;;;;;;1999.90;999.90;;;11.30;99.90;;;;;;4937611;29;20222;-59
2022/08/06 03:18:54;;;;;;;1999.90;999.90;;;11.20;99.90;;;;;;4937567;29;20207;-59
2022/08/06 03:21:23;;;;;;;1999.90;999.90;;;11.20;99.90;;;;;;4937460;29;20216;-59
2022/08/06 03:23:52;;;;;;;1999.90;999.90;;;10.90;99.90;;;;;;4937454;29;20196;-59
2022/08/06 03:26:19;;;;;;;1999.90;999.90;;;10.80;99.90;;;;;;4937480;29;20206;-59
2022/08/06 03:28:47;;;;;;;1999.90;999.90;;;10.80;99.90;;;;;;4937293;29;20227;-59
2022/08/06 03:31:16;;;;;;;1999.90;999.90;;;10.80;99.90;;;;;;4937085;29;20600;-59
2022/08/06 03:33:43;;;;;;;1999.90;999.90;;;10.80;99.90;;;;;;4937352;29;20204;-59
2022/08/06 03:36:11;;;;;;;1999.90;999.90;;;10.80;99.90;;;;;;4937301;29;20559;-59
2022/08/06 03:38:44;;;;;;;1999.90;999.90;;;10.80;99.90;;;;;;4937403;29;20206;-58
2022/08/06 03:41:13;;;;;;;1999.90;999.90;;;10.90;99.90;;;;;;4937113;29;20219;-59
2022/08/06 03:43:40;;;;;;;1999.90;999.90;;;10.90;99.90;;;;;;4937177;29;20208;-59
2022/08/06 03:46:08;;;;;;;1999.90;999.90;;;11.00;99.90;;;;;;4936851;29;20700;-59
2022/08/06 03:48:39;;;;;;;1999.90;999.90;;;10.90;99.90;;;;;;4936730;29;20279;-59
2022/08/06 03:51:11;;;;;;;1999.90;999.90;;;10.50;99.90;;;;;;4937053;29;20199;-56
2022/08/06 03:53:42;;;;;;;1999.90;999.90;;;10.40;99.90;;;;;;4936711;29;20199;-57
2022/08/06 03:56:11;;;;;;;1999.90;999.90;;;10.00;99.90;;;;;;4936758;29;20198;-57
2022/08/06 03:58:41;;;;;;;1999.90;999.90;;;10.00;99.90;;;;;;4936337;29;20223;-57
2022/08/06 04:01:12;;;;;;;1999.90;999.90;;;10.00;99.90;;;;;;4936703;29;20206;-57
2022/08/06 04:03:41;;;;;;;1999.90;999.90;;;10.20;99.90;;;;;;4936623;29;20184;-55
2022/08/06 04:06:11;;;;;;;1999.90;999.90;;;10.20;99.90;;;;;;4936545;29;20199;-58
2022/08/06 04:08:39;;;;;;;1999.90;999.90;;;10.30;99.90;;;;;;4936670;29;20205;-55
2022/08/06 04:11:08;;;;;;;1999.90;999.90;;;10.40;99.90;;;;;;4936360;29;20210;-55
2022/08/06 04:13:36;;;;;;;1999.90;999.90;;;10.50;99.90;;;;;;4936383;29;20208;-55
2022/08/06 04:16:04;;;;;;;1999.90;999.90;;;10.60;99.90;;;;;;4936101;29;20218;-56
2022/08/06 04:18:35;;;;;;;1999.90;999.90;;;10.60;99.90;;;;;;4936213;29;20265;-55
2022/08/06 04:21:06;;;;;;;1999.90;999.90;;;10.60;99.90;;;;;;4936213;29;20210;-55
2022/08/06 04:23:33;;;;;;;1999.90;999.90;;;10.50;99.90;;;;;;4936389;29;20205;-55
2022/08/06 04:26:03;;;;;;;1999.90;999.90;;;10.50;99.90;;;;;;4936476;29;20566;-56
2022/08/06 04:28:31;;;;;;;1999.90;999.90;;;10.70;99.90;;;;;;4936069;29;20202;-55
2022/08/06 04:31:00;;;;;;;1999.90;999.90;;;10.90;99.90;;;;;;4935690;29;20689;-55
2022/08/06 04:33:30;;;;;;;1999.90;999.90;;;10.90;99.90;;;;;;4936135;29;20230;-58
2022/08/06 04:36:04;;;;;;;1999.90;999.90;;;11.10;99.90;;;;;;4936128;29;20176;-58
2022/08/06 04:38:34;;;;;;;1999.90;999.90;;;11.10;99.90;;;;;;4935855;29;20190;-57
2022/08/06 04:41:02;;;;;;;1999.90;999.90;;;11.20;99.90;;;;;;4936010;29;20225;-56
2022/08/06 04:43:30;;;;;;;1999.90;999.90;;;11.30;99.90;;;;;;4935887;29;20194;-56
2022/08/06 04:45:58;;;;;;;1999.90;999.90;;;11.30;99.90;;;;;;4935668;29;20208;-55
2022/08/06 04:48:28;;;;;;;1999.90;999.90;;;11.40;99.90;;;;;;4935669;29;20943;-55
2022/08/06 04:50:55;;;;;;;1999.90;999.90;;;11.40;99.90;;;;;;4935542;29;20205;-55
2022/08/06 04:53:23;;;;;;;1999.90;999.90;;;11.50;99.90;;;;;;4935589;29;20770;-55
2022/08/06 04:55:51;;;;;;;1999.90;999.90;;;11.50;99.90;;;;;;4935800;29;20196;-56
2022/08/06 04:58:19;;;;;;;1999.90;999.90;;;11.60;99.90;;;;;;4935663;29;20219;-56
2022/08/06 05:00:48;;;;;;;1999.90;999.90;;;11.60;99.90;;;;;;4935610;29;20558;-55
2022/08/06 05:03:15;;;;;;;1999.90;999.90;;;11.70;99.90;;;;;;4935461;29;20219;-56
2022/08/06 05:05:48;;;;;;;1999.90;999.90;;;11.80;99.90;;;;;;4935345;29;20206;-55
2022/08/06 05:08:16;;;;;;;1999.90;999.90;;;11.80;99.90;;;;;;4935804;29;20193;-56
2022/08/06 05:10:52;;;;;;;1999.90;999.90;;;11.90;99.90;;;;;;4935187;29;20205;-56
2022/08/06 05:13:23;;;;;;;1999.90;999.90;;;12.00;99.90;;;;;;4935346;29;20202;-56
2022/08/06 05:15:54;;;;;;;1999.90;999.90;;;12.00;99.90;;;;;;4935321;29;20252;-56
2022/08/06 05:18:25;;;;;;;1999.90;999.90;;;12.20;99.90;;;;;;4935347;29;20186;-56
2022/08/06 05:20:55;;;;;;;1999.90;999.90;;;12.30;99.90;;;;;;4935462;29;20192;-56
2022/08/06 05:23:27;;;;;;;1999.90;999.90;;;12.50;99.90;;;;;;4935432;29;20200;-56
2022/08/06 05:25:55;;;;;;;1999.90;999.90;;;12.60;99.90;;;;;;4935147;29;20188;-57
2022/08/06 05:28:23;;;;;;;1999.90;999.90;;;13.10;99.90;;;;;;4934978;29;20218;-55
2022/08/06 05:30:52;;;;;;;1999.90;999.90;;;13.40;99.90;;;;;;4935010;29;20235;-56
2022/08/06 05:33:27;;;;;;;1999.90;999.90;;;13.80;99.90;;;;;;4935244;29;20226;-56
2022/08/06 05:35:54;;;;;;;1999.90;999.90;;;14.50;99.90;;;;;;4935322;29;20196;-56
2022/08/06 05:38:22;;;;;;;1999.90;999.90;;;14.90;99.90;;;;;;4935298;29;20216;-56
2022/08/06 05:40:49;;;;;;;1999.90;999.90;;;15.50;99.90;;;;;;4935239;29;20200;-56
2022/08/06 05:43:17;;;;;;;1999.90;999.90;;;15.50;99.90;;;;;;4935226;29;20207;-56
2022/08/06 05:45:47;;;;;;;1999.90;999.90;;;15.30;99.90;;;;;;4935222;29;20198;-56
2022/08/06 05:48:19;;;;;;;1999.90;999.90;;;15.00;99.90;;;;;;4934855;29;20191;-57
2022/08/06 05:50:49;;;;;;;1999.90;999.90;;;14.70;99.90;;;;;;4934795;29;20250;-56
2022/08/06 05:53:28;;;;;;;1999.90;999.90;;;14.60;99.90;;;;;;4934836;29;20214;-56
2022/08/06 05:55:59;;;;;;;1999.90;999.90;;;14.60;99.90;;;;;;4935178;29;20191;-56
2022/08/06 05:58:34;;;;;;;1999.90;999.90;;;14.60;99.90;;;;;;4935030;29;20207;-56
2022/08/06 06:01:07;;;;;;;1999.90;999.90;;;14.80;99.90;;;;;;4935373;29;20209;-57
2022/08/06 06:03:35;;;;;;;1999.90;999.90;;;15.50;99.90;;;;;;4935113;29;20182;-57
2022/08/06 06:06:03;;;;;;;1999.90;999.90;;;16.30;99.90;;;;;;4935075;29;20208;-57
2022/08/06 06:08:31;;;;;;;1999.90;999.90;;;17.00;99.90;;;;;;4934682;29;20210;-55
2022/08/06 06:10:58;;;;;;;1999.90;999.90;;;17.60;99.90;;;;;;4934923;29;20214;-54
2022/08/06 06:13:26;;;;;;;1999.90;999.90;;;17.60;99.90;;;;;;4934663;29;20727;-54
2022/08/06 06:15:58;;;;;;;1999.90;999.90;;;17.90;99.90;;;;;;4935017;29;20208;-55
2022/08/06 06:18:42;;;;;;;1999.90;999.90;;;18.30;99.90;;;;;;4934639;29;20252;-56
2022/08/06 06:21:17;;;;;;;1999.90;999.90;;;18.30;99.90;;;;;;4934633;29;20180;-56
2022/08/06 06:23:49;;;;;;;1999.90;999.90;;;18.40;99.90;;;;;;4937501;29;20190;-55
2022/08/06 06:26:21;;;;;;;1999.90;999.90;;;18.80;99.90;;;;;;4938155;29;20550;-56
2022/08/06 06:28:58;;;;;;;1999.90;999.90;;;18.70;99.90;;;;;;4937925;29;20208;-56
2022/08/06 06:31:34;;;;;;;1999.90;999.90;;;19.10;99.90;;;;;;4938252;29;20239;-56
2022/08/06 06:34:08;;;;;;;1999.90;999.90;;;19.30;99.90;;;;;;4938080;29;20210;-56
2022/08/06 06:36:43;;;;;;;1999.90;999.90;;;19.60;99.90;;;;;;4938399;29;20186;-55
2022/08/06 06:39:18;;;;;;;1999.90;999.90;;;19.60;99.90;;;;;;4938196;29;20193;-56
2022/08/06 06:41:50;;;;;;;1999.90;999.90;;;19.70;99.90;;;;;;4938299;29;20191;-58
2022/08/06 06:44:21;;;;;;;1999.90;999.90;;;19.60;99.90;;;;;;4938183;29;20196;-56
2022/08/06 06:46:54;;;;;;;1999.90;999.90;;;19.50;99.90;;;;;;4938207;29;20184;-56
2022/08/06 06:49:30;;;;;;;1999.90;999.90;;;19.90;99.90;;;;;;4938225;29;20242;-57
2022/08/06 06:52:05;;;;;;;1999.90;999.90;;;20.00;99.90;;;;;;4937658;29;20649;-56
2022/08/06 06:54:36;;;;;;;1999.90;999.90;;;20.30;99.90;;;;;;4937819;29;20658;-56
2022/08/06 06:57:07;;;;;;;1999.90;999.90;;;20.60;99.90;;;;;;4938087;29;20192;-56
2022/08/06 06:59:37;;;;;;;1999.90;999.90;;;20.70;99.90;;;;;;4938096;29;20192;-57
2022/08/06 07:02:06;;;;;;;1999.90;999.90;;;20.60;99.90;;;;;;4937717;29;20564;-57
2022/08/06 07:04:37;;;;;;;1999.90;999.90;;;20.50;99.90;;;;;;4937895;29;20214;-56
2022/08/06 07:07:06;;;;;;;1999.90;999.90;;;20.80;66.00;;;;;;4937575;29;20346;-56
2022/08/06 07:09:35;;;;;;;1999.90;999.90;;;21.00;1.00;;;;;;4937370;29;20732;-56
2022/08/06 07:12:04;;;;;;;1999.90;999.90;;;21.00;1.00;;;;;;4937576;29;20209;-56
2022/08/06 07:14:33;;;;;;;1999.90;999.90;;;20.80;1.00;;;;;;4937510;29;20207;-56
2022/08/06 07:17:01;;;;;;;1999.90;999.90;;;21.20;1.00;;;;;;4937649;29;20204;-56
2022/08/06 07:19:29;;;;;;;1999.90;999.90;;;21.50;1.00;;;;;;4937000;29;20200;-55
2022/08/06 07:21:58;;;;;;;1999.90;999.90;;;21.60;1.00;;;;;;4937200;29;20211;-55
2022/08/06 07:24:30;;;;;;;1999.90;999.90;;;21.50;99.90;;;;;;4937463;29;20565;-55
2022/08/06 07:26:59;;;;;;;1999.90;999.90;;;21.70;99.90;;;;;;4937173;29;20665;-56
2022/08/06 07:29:28;;;;;;;1999.90;999.90;;;22.40;1.00;;;;;;4937356;29;20204;-55
2022/08/06 07:31:58;;;;;;;1999.90;999.90;;;22.20;97.00;;;;;;4936923;29;20248;-54
2022/08/06 07:34:26;;;;;;;1999.90;999.90;;;22.10;13.80;;;;;;4936782;29;20218;-56
2022/08/06 07:36:54;;;;;;;1999.90;999.90;;;22.40;1.00;;;;;;4937038;29;20210;-57
2022/08/06 07:39:26;;;;;;;1999.90;999.90;;;22.90;99.90;;;;;;4936951;29;20199;-54
2022/08/06 07:41:55;;;;;;;1999.90;999.90;;;22.80;1.00;;;;;;4937655;29;20192;-54
2022/08/06 07:44:24;;;;;;;1999.90;999.90;;;22.90;1.00;;;;;;4937191;29;20203;-54
2022/08/06 07:46:55;;;;;;;1999.90;999.90;;;23.20;1.00;;;;;;4936404;29;20674;-54
2022/08/06 07:49:26;;;;;;;1999.90;999.90;;;23.20;53.10;;;;;;4936164;29;20188;-54
2022/08/06 07:51:56;;;;;;;1999.90;999.90;;;23.20;1.00;;;;;;4936435;29;20180;-55
2022/08/06 07:54:30;;;;;;;1999.90;999.90;;;23.30;1.00;;;;;;4936557;29;20575;-56
2022/08/06 07:56:58;;;;;;;1999.90;999.90;;;23.30;1.00;;;;;;4936719;29;20747;-56
2022/08/06 07:59:26;;;;;;;1999.90;999.90;;;23.70;92.60;;;;;;4937183;29;20199;-56
2022/08/06 08:09:54;;;;;;;1999.90;999.90;;;24.00;1.00;;;;;;5837011;23;21178;-65
2022/08/06 08:12:22;;;;;;;1999.90;999.90;;;23.90;1.00;;;;;;4970362;28;20202;-64
2022/08/06 08:14:51;;;;;;;1999.90;999.90;;;23.70;99.90;;;;;;4955571;29;20202;-65
2022/08/06 08:17:18;;;;;;;1999.90;999.90;;;24.10;1.00;;;;;;4955414;29;20639;-64
2022/08/06 08:19:45;;;;;;;1999.90;999.90;;;24.20;99.90;;;;;;4955638;29;20211;-68
2022/08/06 08:22:14;;;;;;;1999.90;999.90;;;23.90;99.90;;;;;;4964094;28;20550;-67
2022/08/06 08:24:42;;;;;;;1999.90;999.90;;;23.50;99.90;;;;;;4974043;28;20696;-64
2022/08/06 08:27:11;;;;;;;1999.90;999.90;;;23.60;99.90;;;;;;4974890;28;20212;-66
2022/08/06 08:29:39;;;;;;;1999.90;999.90;;;24.20;1.00;;;;;;4974772;28;20208;-66
2022/08/06 08:32:08;;;;;;;1999.90;999.90;;;24.30;99.90;;;;;;4974464;28;20744;-66
2022/08/06 08:34:36;;;;;;;1999.90;999.90;;;24.40;84.30;;;;;;4974702;28;20218;-67
2022/08/06 08:37:03;;;;;;;1999.90;999.90;;;23.90;1.00;;;;;;4974421;28;20686;-65
2022/08/06 08:39:31;;;;;;;1999.90;999.90;;;23.30;99.90;;;;;;4974107;28;20209;-66
2022/08/06 08:42:06;;;;;;;1999.90;999.90;;;24.00;1.00;;;;;;4974321;28;20205;-65
2022/08/06 08:44:35;;;;;;;1999.90;999.90;;;24.20;1.00;;;;;;4974362;28;20179;-67
2022/08/06 08:47:04;;;;;;;1999.90;999.90;;;23.60;1.00;;;;;;4973863;28;20210;-65
2022/08/06 08:49:37;;;;;;;1999.90;999.90;;;23.90;99.90;;;;;;4974510;28;20206;-65
2022/08/06 08:52:07;;;;;;;1999.90;999.90;;;24.30;99.90;;;;;;4974494;28;20204;-65
2022/08/06 08:54:36;;;;;;;1999.90;999.90;;;24.90;99.90;;;;;;4973986;28;20240;-65
2022/08/06 08:57:05;;;;;;;1999.90;999.90;;;25.00;99.90;;;;;;4973978;28;20203;-66
2022/08/06 08:59:32;;;;;;;1999.90;999.90;;;25.60;99.90;;;;;;4974039;28;20202;-68
2022/08/06 09:02:01;;;;;;;1999.90;999.90;;;25.50;99.90;;;;;;4974166;28;20198;-69
2022/08/06 09:04:28;;;;;;;1999.90;999.90;;;25.00;99.90;;;;;;4973888;28;20537;-69
2022/08/06 09:06:56;;;;;;;1999.90;999.90;;;24.50;99.90;;;;;;4973346;28;20260;-69
2022/08/06 09:09:25;;;;;;;1999.90;999.90;;;23.50;99.90;;;;;;4973725;28;20189;-69
2022/08/06 09:11:53;;;;;;;1999.90;999.90;;;22.90;99.90;;;;;;4973654;28;20234;-69
2022/08/06 09:14:21;;;;;;;1999.90;999.90;;;22.70;99.90;;;;;;4974020;28;20272;-70
2022/08/06 09:16:49;;;;;;;1999.90;999.90;;;22.30;99.90;;;;;;4973482;28;20198;-70
2022/08/06 09:19:18;;;;;;;1999.90;999.90;;;22.80;99.90;;;;;;4974049;28;20213;-70
2022/08/06 09:21:45;;;;;;;1999.90;999.90;;;23.70;67.50;;;;;;4973697;28;20610;-70
2022/08/06 09:24:12;;;;;;;1999.90;999.90;;;24.40;99.90;;;;;;4973666;28;20221;-70
2022/08/06 09:27:00;;;;;;;1999.90;999.90;;;24.70;99.90;;;;;;4973647;28;20244;-70
2022/08/06 09:29:27;;;;;;;1999.90;999.90;;;25.00;99.90;;;;;;4973649;28;20636;-70
2022/08/06 09:31:54;;;;;;;1999.90;999.90;;;25.80;1.00;;;;;;4973844;28;20212;-68
2022/08/06 09:34:31;;;;;;;1999.90;999.90;;;25.70;1.00;;;;;;4973198;28;20220;-68
2022/08/06 09:36:59;;;;;;;1999.90;999.90;;;25.90;1.00;;;;;;4973609;28;20186;-70
2022/08/06 09:39:34;;;;;;;1999.90;999.90;;;26.00;1.00;;;;;;4973280;28;20205;-69
2022/08/06 09:42:02;;;;;;;1999.90;999.90;;;25.70;1.00;;;;;;4973930;28;20205;-71
2022/08/06 09:44:30;;;;;;;1999.90;999.90;;;25.90;1.00;;;;;;4973767;28;20194;-71
2022/08/06 09:46:57;;;;;;;1999.90;999.90;;;25.70;1.00;;;;;;4973409;28;20218;-70
2022/08/06 09:49:26;;;;;;;1999.90;999.90;;;25.30;1.00;;;;;;4973338;28;20248;-71
2022/08/06 09:52:11;;;;;;;1999.90;999.90;;;24.60;1.00;;;;;;4973649;28;20199;-71
2022/08/06 09:54:38;;;;;;;1999.90;999.90;;;24.10;1.00;;;;;;4973547;28;20210;-71
2022/08/06 09:57:06;;;;;;;1999.90;999.90;;;23.90;1.00;;;;;;4975169;28;20198;-73
2022/08/06 09:59:43;;;;;;;1999.90;999.90;;;23.50;1.00;;;;;;4977286;28;20197;-71
2022/08/06 10:02:14;;;;;;;1999.90;999.90;;;22.90;1.00;;;;;;4977338;28;20585;-70
2022/08/06 10:04:43;;;;;;;1999.90;999.90;;;22.30;1.00;;;;;;4977558;28;20186;-70
2022/08/06 10:07:10;;;;;;;1999.90;999.90;;;22.00;1.00;;;;;;4977197;28;20207;-71
2022/08/06 10:09:51;;;;;;;1999.90;999.90;;;22.10;1.00;;;;;;4977035;28;20206;-69
2022/08/06 10:12:19;;;;;;;1999.90;999.90;;;23.10;1.00;;;;;;4977404;28;20190;-68
2022/08/06 10:14:46;;;;;;;1999.90;999.90;;;24.40;1.00;;;;;;4977322;28;20216;-68
2022/08/06 10:17:14;;;;;;;1999.90;999.90;;;25.40;1.00;;;;;;4977255;28;20202;-68
2022/08/06 10:19:44;;;;;;;1999.90;999.90;;;26.00;1.00;;;;;;4977270;28;20215;-68
2022/08/06 10:22:12;;;;;;;1999.90;999.90;;;25.80;1.00;;;;;;4976902;28;20663;-69
2022/08/06 10:24:42;;;;;;;1999.90;999.90;;;25.50;1.00;;;;;;4977148;28;20198;-69
2022/08/06 10:27:12;;;;;;;1999.90;999.90;;;26.10;1.00;;;;;;4977090;28;20209;-70
2022/08/06 10:29:43;;;;;;;1999.90;999.90;;;26.00;1.00;;;;;;4976971;28;20204;-69
2022/08/06 10:32:16;;;;;;;1999.90;999.90;;;26.70;1.00;;;;;;4974290;28;20589;-71
2022/08/06 10:34:45;;;;;;;1999.90;999.90;;;27.20;1.00;;;;;;4967348;28;20202;-72
2022/08/06 10:37:13;;;;;;;1999.90;999.90;;;26.80;1.00;;;;;;4973805;28;20231;-72
2022/08/06 10:39:46;;;;;;;1999.90;999.90;;;25.60;1.00;;;;;;4970779;28;20210;-72
2022/08/06 10:42:14;;;;;;;1999.90;999.90;;;25.60;1.00;;;;;;4976485;28;20187;-72
2022/08/06 10:44:44;;;;;;;1999.90;999.90;;;25.90;1.00;;;;;;4976538;28;20198;-72
2022/08/06 10:47:12;;;;;;;1999.90;999.90;;;25.70;1.00;;;;;;4976407;28;20252;-70
2022/08/06 10:49:39;;;;;;;1999.90;999.90;;;25.90;1.00;;;;;;4969930;28;20203;-70
2022/08/06 10:52:09;;;;;;;1999.90;999.90;;;25.60;1.00;;;;;;4975689;28;21033;-70
2022/08/06 10:54:37;;;;;;;1999.90;999.90;;;25.80;1.00;;;;;;4976427;28;20220;-69
2022/08/06 10:57:06;;;;;;;1999.90;999.90;;;25.60;1.00;;;;;;4967794;28;20211;-70
2022/08/06 10:59:33;;;;;;;1999.90;999.90;;;25.00;1.00;;;;;;4976249;28;20773;-69
2022/08/06 11:02:09;;;;;;;1999.90;999.90;;;24.10;1.00;;;;;;4976473;28;20706;-70
2022/08/06 11:04:46;;;;;;;1999.90;999.90;;;24.00;1.00;;;;;;4975749;28;20204;-68
2022/08/06 11:07:48;;;;;;;1999.90;999.90;;;24.60;1.00;;;;;;4968376;28;20194;-70
2022/08/06 11:10:44;;;;;;;1999.90;999.90;;;24.60;1.00;;;;;;4975559;28;20248;-67
2022/08/06 11:13:22;;;;;;;1999.90;999.90;;;23.80;1.00;;;;;;4976024;28;20189;-68
2022/08/06 11:15:49;;;;;;;1999.90;999.90;;;23.40;1.00;;;;;;4976257;28;20241;-64
2022/08/06 11:18:17;;;;;;;1999.90;999.90;;;23.50;1.00;;;;;;4976055;28;20202;-65
2022/08/06 11:20:45;;;;;;;1999.90;999.90;;;24.30;1.00;;;;;;4976084;28;20252;-65
2022/08/06 11:23:40;;;;;;;1999.90;999.90;;;25.50;1.00;;;;;;4976073;28;20226;-65
2022/08/06 11:26:08;;;;;;;1999.90;999.90;;;26.40;1.00;;;;;;4878538;29;20228;-66
2022/08/06 11:29:03;;;;;;;1999.90;999.90;;;25.80;1.00;;;;;;4878451;29;20216;-64
2022/08/06 11:31:35;;;;;;;1999.90;999.90;;;24.70;1.00;;;;;;4878611;29;20196;-64
2022/08/06 11:34:04;;;;;;;1999.90;999.90;;;23.70;1.00;;;;;;4878397;29;20284;-63
2022/08/06 11:36:45;;;;;;;1999.90;999.90;;;23.10;1.00;;;;;;4878549;29;20303;-64
2022/08/06 11:39:14;;;;;;;1999.90;999.90;;;23.40;1.00;;;;;;4878339;29;20197;-65
2022/08/06 11:41:47;;;;;;;1999.90;999.90;;;24.90;1.00;;;;;;4878223;29;20216;-65
2022/08/06 11:44:16;;;;;;;1999.90;999.90;;;26.00;1.00;;;;;;4878231;29;20350;-66
2022/08/06 11:46:45;;;;;;;1999.90;999.90;;;26.70;1.00;;;;;;4878232;29;20209;-68
2022/08/06 11:49:20;;;;;;;1999.90;999.90;;;26.70;1.00;;;;;;4878264;29;20257;-68
2022/08/06 11:51:50;;;;;;;1999.90;999.90;;;25.60;1.00;;;;;;4878180;29;20699;-70
2022/08/06 11:54:20;;;;;;;1999.90;999.90;;;25.00;1.00;;;;;;4877944;29;20270;-67
2022/08/06 11:57:24;;;;;;;1999.90;999.90;;;24.30;1.00;;;;;;4878062;29;20205;-66
2022/08/06 12:00:13;;;;;;;1999.90;999.90;;;23.70;1.00;;;;;;4878080;29;20240;-65
2022/08/06 12:03:06;;;;;;;1999.90;999.90;;;23.50;1.00;;;;;;4956206;28;20573;-65
2022/08/06 12:05:46;;;;;;;1999.90;999.90;;;24.70;1.00;;;;;;4975071;28;20587;-66
2022/08/06 12:08:26;;;;;;;1999.90;999.90;;;26.20;1.00;;;;;;4975002;28;20183;-66
2022/08/06 12:11:24;;;;;;;1999.90;999.90;;;26.90;1.00;;;;;;4974719;28;20269;-67
2022/08/06 12:13:53;;;;;;;1999.90;999.90;;;27.00;1.00;;;;;;4975152;28;20193;-67
2022/08/06 12:16:32;;;;;;;1999.90;999.90;;;27.20;1.00;;;;;;4974856;28;20205;-66
2022/08/06 12:19:00;;;;;;;1999.90;999.90;;;27.30;1.00;;;;;;4974779;28;20630;-66
2022/08/06 12:21:27;;;;;;;1999.90;999.90;;;26.30;1.00;;;;;;4975002;28;20202;-66
2022/08/06 12:23:55;;;;;;;1999.90;999.90;;;25.80;1.00;;;;;;4974982;28;20206;-66
2022/08/06 12:26:24;;;;;;;1999.90;999.90;;;25.40;1.00;;;;;;4974546;28;20244;-66